sensor_id;sensor_type;location;lat;lon;timestamp;P1;durP1;ratioP1;P2;durP2;ratioP2
23642;SDS011;11998;55.788;37.572;2023-03-14T00:00:08;5.10;;;2.33;;
23642;SDS011;11998;55.788;37.572;2023-03-14T00:01:18;3.28;;;2.10;;
23642;SDS011;11998;55.788;37.572;2023-03-14T00:02:18;2.58;;;1.95;;
23642;SDS011;11998;55.788;37.572;2023-03-14T00:03:19;5.40;;;2.40;;
23642;SDS011;11998;55.788;37.572;2023-03-14T00:04:19;2.50;;;2.00;;
23642;SDS011;11998;55.788;37.572;2023-03-14T00:05:20;3.43;;;2.07;;
23642;SDS011;11998;55.788;37.572;2023-03-14T00:06:20;6.67;;;2.40;;
23642;SDS011;11998;55.788;37.572;2023-03-14T00:07:21;3.80;;;2.17;;
23642;SDS011;11998;55.788;37.572;2023-03-14T00:08:23;3.05;;;1.90;;
23642;SDS011;11998;55.788;37.572;2023-03-14T00:09:24;6.53;;;2.53;;
23642;SDS011;11998;55.788;37.572;2023-03-14T00:10:26;4.28;;;2.22;;
23642;SDS011;11998;55.788;37.572;2023-03-14T00:11:26;5.07;;;2.60;;
23642;SDS011;11998;55.788;37.572;2023-03-14T00:12:27;9.03;;;2.23;;
23642;SDS011;11998;55.788;37.572;2023-03-14T00:13:27;3.60;;;2.57;;
23642;SDS011;11998;55.788;37.572;2023-03-14T00:14:28;5.10;;;2.33;;
23642;SDS011;11998;55.788;37.572;2023-03-14T00:15:28;3.63;;;2.23;;
23642;SDS011;11998;55.788;37.572;2023-03-14T00:16:28;5.27;;;2.03;;
23642;SDS011;11998;55.788;37.572;2023-03-14T00:17:29;4.00;;;2.30;;
23642;SDS011;11998;55.788;37.572;2023-03-14T00:18:30;4.07;;;2.43;;
23642;SDS011;11998;55.788;37.572;2023-03-14T00:19:30;3.67;;;1.97;;
23642;SDS011;11998;55.788;37.572;2023-03-14T00:20:30;4.30;;;2.20;;
23642;SDS011;11998;55.788;37.572;2023-03-14T00:21:31;3.10;;;2.10;;
23642;SDS011;11998;55.788;37.572;2023-03-14T00:22:31;3.40;;;2.10;;
23642;SDS011;11998;55.788;37.572;2023-03-14T00:23:32;4.90;;;2.10;;
23642;SDS011;11998;55.788;37.572;2023-03-14T00:24:33;3.20;;;1.95;;
23642;SDS011;11998;55.788;37.572;2023-03-14T00:25:34;7.50;;;2.50;;
23642;SDS011;11998;55.788;37.572;2023-03-14T00:26:34;5.30;;;2.17;;
23642;SDS011;11998;55.788;37.572;2023-03-14T00:27:35;3.07;;;2.00;;
23642;SDS011;11998;55.788;37.572;2023-03-14T00:28:37;6.10;;;2.33;;
23642;SDS011;11998;55.788;37.572;2023-03-14T00:29:38;2.87;;;1.97;;
23642;SDS011;11998;55.788;37.572;2023-03-14T00:30:38;5.53;;;2.30;;
23642;SDS011;11998;55.788;37.572;2023-03-14T00:31:38;4.73;;;2.23;;
23642;SDS011;11998;55.788;37.572;2023-03-14T00:32:39;4.60;;;2.30;;
23642;SDS011;11998;55.788;37.572;2023-03-14T00:33:39;5.47;;;2.10;;
23642;SDS011;11998;55.788;37.572;2023-03-14T00:34:40;5.83;;;2.10;;
23642;SDS011;11998;55.788;37.572;2023-03-14T00:35:40;2.87;;;2.27;;
23642;SDS011;11998;55.788;37.572;2023-03-14T00:36:41;5.67;;;2.30;;
23642;SDS011;11998;55.788;37.572;2023-03-14T00:37:41;3.80;;;2.30;;
23642;SDS011;11998;55.788;37.572;2023-03-14T00:38:45;5.27;;;2.60;;
23642;SDS011;11998;55.788;37.572;2023-03-14T00:39:45;6.10;;;2.80;;
23642;SDS011;11998;55.788;37.572;2023-03-14T00:40:46;5.40;;;2.50;;
23642;SDS011;11998;55.788;37.572;2023-03-14T00:41:49;4.93;;;2.58;;
23642;SDS011;11998;55.788;37.572;2023-03-14T00:42:52;7.78;;;2.72;;
23642;SDS011;11998;55.788;37.572;2023-03-14T00:43:55;5.07;;;2.20;;
23642;SDS011;11998;55.788;37.572;2023-03-14T00:44:55;5.27;;;2.70;;
23642;SDS011;11998;55.788;37.572;2023-03-14T00:45:56;5.57;;;3.60;;
23642;SDS011;11998;55.788;37.572;2023-03-14T00:46:57;4.63;;;2.50;;
23642;SDS011;11998;55.788;37.572;2023-03-14T00:47:57;6.77;;;3.37;;
23642;SDS011;11998;55.788;37.572;2023-03-14T00:48:58;3.93;;;2.73;;
23642;SDS011;11998;55.788;37.572;2023-03-14T00:50:01;6.35;;;3.10;;
23642;SDS011;11998;55.788;37.572;2023-03-14T00:51:03;4.33;;;2.70;;
23642;SDS011;11998;55.788;37.572;2023-03-14T00:52:03;5.32;;;3.20;;
23642;SDS011;11998;55.788;37.572;2023-03-14T00:53:04;5.50;;;3.33;;
23642;SDS011;11998;55.788;37.572;2023-03-14T00:54:04;5.67;;;3.30;;
23642;SDS011;11998;55.788;37.572;2023-03-14T00:55:04;4.43;;;3.20;;
23642;SDS011;11998;55.788;37.572;2023-03-14T00:56:06;10.40;;;3.47;;
23642;SDS011;11998;55.788;37.572;2023-03-14T00:57:07;7.05;;;3.38;;
23642;SDS011;11998;55.788;37.572;2023-03-14T00:58:08;5.53;;;3.17;;
23642;SDS011;11998;55.788;37.572;2023-03-14T00:59:08;7.33;;;3.80;;
23642;SDS011;11998;55.788;37.572;2023-03-14T01:00:11;6.15;;;3.45;;
23642;SDS011;11998;55.788;37.572;2023-03-14T01:01:13;8.07;;;3.72;;
23642;SDS011;11998;55.788;37.572;2023-03-14T01:02:14;6.65;;;3.38;;
23642;SDS011;11998;55.788;37.572;2023-03-14T01:03:14;7.80;;;4.00;;
23642;SDS011;11998;55.788;37.572;2023-03-14T01:04:15;7.67;;;3.90;;
23642;SDS011;11998;55.788;37.572;2023-03-14T01:05:15;5.73;;;3.00;;
23642;SDS011;11998;55.788;37.572;2023-03-14T01:06:18;6.73;;;3.50;;
23642;SDS011;11998;55.788;37.572;2023-03-14T01:07:19;4.70;;;3.30;;
23642;SDS011;11998;55.788;37.572;2023-03-14T01:08:19;7.00;;;4.07;;
23642;SDS011;11998;55.788;37.572;2023-03-14T01:09:20;6.87;;;3.60;;
23642;SDS011;11998;55.788;37.572;2023-03-14T01:10:20;8.43;;;4.07;;
23642;SDS011;11998;55.788;37.572;2023-03-14T01:11:24;7.25;;;3.88;;
23642;SDS011;11998;55.788;37.572;2023-03-14T01:12:28;6.38;;;3.75;;
23642;SDS011;11998;55.788;37.572;2023-03-14T01:13:28;7.28;;;3.45;;
23642;SDS011;11998;55.788;37.572;2023-03-14T01:14:28;6.07;;;3.33;;
23642;SDS011;11998;55.788;37.572;2023-03-14T01:15:29;9.00;;;3.60;;
23642;SDS011;11998;55.788;37.572;2023-03-14T01:16:30;5.47;;;3.30;;
23642;SDS011;11998;55.788;37.572;2023-03-14T01:17:31;7.43;;;3.63;;
23642;SDS011;11998;55.788;37.572;2023-03-14T01:18:32;6.90;;;3.80;;
23642;SDS011;11998;55.788;37.572;2023-03-14T01:19:32;6.23;;;3.73;;
23642;SDS011;11998;55.788;37.572;2023-03-14T01:20:33;6.23;;;3.90;;
23642;SDS011;11998;55.788;37.572;2023-03-14T01:21:34;5.30;;;3.90;;
23642;SDS011;11998;55.788;37.572;2023-03-14T01:22:35;7.63;;;3.85;;
23642;SDS011;11998;55.788;37.572;2023-03-14T01:23:36;7.20;;;3.87;;
23642;SDS011;11998;55.788;37.572;2023-03-14T01:24:36;6.07;;;3.97;;
23642;SDS011;11998;55.788;37.572;2023-03-14T01:25:40;6.47;;;3.83;;
23642;SDS011;11998;55.788;37.572;2023-03-14T01:26:40;7.28;;;3.97;;
23642;SDS011;11998;55.788;37.572;2023-03-14T01:27:41;5.80;;;3.77;;
23642;SDS011;11998;55.788;37.572;2023-03-14T01:28:41;6.87;;;3.70;;
23642;SDS011;11998;55.788;37.572;2023-03-14T01:29:42;7.17;;;3.93;;
23642;SDS011;11998;55.788;37.572;2023-03-14T01:30:42;7.73;;;4.60;;
23642;SDS011;11998;55.788;37.572;2023-03-14T01:31:43;5.43;;;4.13;;
23642;SDS011;11998;55.788;37.572;2023-03-14T01:32:43;7.47;;;4.10;;
23642;SDS011;11998;55.788;37.572;2023-03-14T01:33:44;6.00;;;4.03;;
23642;SDS011;11998;55.788;37.572;2023-03-14T01:34:45;9.63;;;4.72;;
23642;SDS011;11998;55.788;37.572;2023-03-14T01:35:45;8.40;;;4.20;;
23642;SDS011;11998;55.788;37.572;2023-03-14T01:36:46;9.13;;;4.67;;
23642;SDS011;11998;55.788;37.572;2023-03-14T01:37:46;7.17;;;4.73;;
23642;SDS011;11998;55.788;37.572;2023-03-14T01:38:46;7.13;;;4.30;;
23642;SDS011;11998;55.788;37.572;2023-03-14T01:39:47;10.60;;;5.00;;
23642;SDS011;11998;55.788;37.572;2023-03-14T01:40:47;10.10;;;4.90;;
23642;SDS011;11998;55.788;37.572;2023-03-14T01:41:48;9.60;;;4.80;;
23642;SDS011;11998;55.788;37.572;2023-03-14T01:42:58;7.60;;;4.90;;
23642;SDS011;11998;55.788;37.572;2023-03-14T01:43:58;8.45;;;5.07;;
23642;SDS011;11998;55.788;37.572;2023-03-14T01:44:59;6.23;;;4.70;;
23642;SDS011;11998;55.788;37.572;2023-03-14T01:47:01;6.23;;;4.70;;
23642;SDS011;11998;55.788;37.572;2023-03-14T01:48:01;12.43;;;5.20;;
23642;SDS011;11998;55.788;37.572;2023-03-14T01:50:06;8.98;;;5.60;;
23642;SDS011;11998;55.788;37.572;2023-03-14T01:51:10;9.13;;;5.10;;
23642;SDS011;11998;55.788;37.572;2023-03-14T01:52:16;10.52;;;4.72;;
23642;SDS011;11998;55.788;37.572;2023-03-14T01:53:19;7.03;;;5.30;;
23642;SDS011;11998;55.788;37.572;2023-03-14T01:55:24;7.82;;;5.35;;
23642;SDS011;11998;55.788;37.572;2023-03-14T01:56:25;8.07;;;5.57;;
23642;SDS011;11998;55.788;37.572;2023-03-14T01:57:36;8.05;;;5.22;;
23642;SDS011;11998;55.788;37.572;2023-03-14T01:58:37;9.48;;;5.60;;
23642;SDS011;11998;55.788;37.572;2023-03-14T01:59:40;10.38;;;5.18;;
23642;SDS011;11998;55.788;37.572;2023-03-14T02:00:43;9.23;;;5.82;;
23642;SDS011;11998;55.788;37.572;2023-03-14T02:01:44;7.30;;;4.80;;
23642;SDS011;11998;55.788;37.572;2023-03-14T02:02:50;6.97;;;5.28;;
23642;SDS011;11998;55.788;37.572;2023-03-14T02:03:52;7.18;;;5.25;;
23642;SDS011;11998;55.788;37.572;2023-03-14T02:04:54;10.07;;;5.80;;
23642;SDS011;11998;55.788;37.572;2023-03-14T02:05:55;8.52;;;5.60;;
23642;SDS011;11998;55.788;37.572;2023-03-14T02:08:11;9.88;;;5.20;;
23642;SDS011;11998;55.788;37.572;2023-03-14T02:09:15;11.05;;;5.50;;
23642;SDS011;11998;55.788;37.572;2023-03-14T02:10:17;9.83;;;5.30;;
23642;SDS011;11998;55.788;37.572;2023-03-14T02:11:18;7.50;;;5.65;;
23642;SDS011;11998;55.788;37.572;2023-03-14T02:12:19;7.47;;;5.10;;
23642;SDS011;11998;55.788;37.572;2023-03-14T02:13:20;6.85;;;5.47;;
23642;SDS011;11998;55.788;37.572;2023-03-14T02:14:33;8.87;;;5.93;;
23642;SDS011;11998;55.788;37.572;2023-03-14T02:15:33;7.93;;;5.35;;
23642;SDS011;11998;55.788;37.572;2023-03-14T02:16:34;8.63;;;5.17;;
23642;SDS011;11998;55.788;37.572;2023-03-14T02:17:35;6.88;;;5.30;;
23642;SDS011;11998;55.788;37.572;2023-03-14T02:18:35;7.00;;;5.60;;
23642;SDS011;11998;55.788;37.572;2023-03-14T02:22:44;7.90;;;6.15;;
23642;SDS011;11998;55.788;37.572;2023-03-14T02:23:47;9.18;;;5.95;;
23642;SDS011;11998;55.788;37.572;2023-03-14T02:26:01;8.75;;;5.68;;
23642;SDS011;11998;55.788;37.572;2023-03-14T02:27:10;9.93;;;5.65;;
23642;SDS011;11998;55.788;37.572;2023-03-14T02:28:11;11.00;;;6.28;;
23642;SDS011;11998;55.788;37.572;2023-03-14T02:29:11;9.33;;;5.70;;
23642;SDS011;11998;55.788;37.572;2023-03-14T02:30:17;8.47;;;5.57;;
23642;SDS011;11998;55.788;37.572;2023-03-14T02:31:17;9.23;;;5.75;;
23642;SDS011;11998;55.788;37.572;2023-03-14T02:32:19;12.03;;;5.87;;
23642;SDS011;11998;55.788;37.572;2023-03-14T02:33:21;8.18;;;5.60;;
23642;SDS011;11998;55.788;37.572;2023-03-14T02:34:21;10.87;;;6.10;;
23642;SDS011;11998;55.788;37.572;2023-03-14T02:35:23;12.83;;;5.90;;
23642;SDS011;11998;55.788;37.572;2023-03-14T02:36:24;10.07;;;5.68;;
23642;SDS011;11998;55.788;37.572;2023-03-14T02:37:27;8.90;;;5.93;;
23642;SDS011;11998;55.788;37.572;2023-03-14T02:38:41;8.68;;;6.45;;
23642;SDS011;11998;55.788;37.572;2023-03-14T02:39:44;7.88;;;5.72;;
23642;SDS011;11998;55.788;37.572;2023-03-14T02:40:45;9.38;;;6.25;;
23642;SDS011;11998;55.788;37.572;2023-03-14T02:41:45;13.53;;;6.67;;
23642;SDS011;11998;55.788;37.572;2023-03-14T02:42:49;11.52;;;7.32;;
23642;SDS011;11998;55.788;37.572;2023-03-14T02:43:50;8.05;;;6.18;;
23642;SDS011;11998;55.788;37.572;2023-03-14T02:44:52;9.40;;;6.67;;
23642;SDS011;11998;55.788;37.572;2023-03-14T02:45:53;9.52;;;7.43;;
23642;SDS011;11998;55.788;37.572;2023-03-14T02:46:53;12.07;;;7.88;;
23642;SDS011;11998;55.788;37.572;2023-03-14T02:47:56;14.20;;;7.93;;
23642;SDS011;11998;55.788;37.572;2023-03-14T02:49:02;13.55;;;7.03;;
23642;SDS011;11998;55.788;37.572;2023-03-14T02:50:06;11.25;;;7.45;;
23642;SDS011;11998;55.788;37.572;2023-03-14T02:51:06;10.10;;;7.38;;
23642;SDS011;11998;55.788;37.572;2023-03-14T02:52:08;12.57;;;7.35;;
23642;SDS011;11998;55.788;37.572;2023-03-14T02:53:08;11.27;;;7.00;;
23642;SDS011;11998;55.788;37.572;2023-03-14T02:54:09;10.27;;;7.20;;
23642;SDS011;11998;55.788;37.572;2023-03-14T02:55:09;8.17;;;6.43;;
23642;SDS011;11998;55.788;37.572;2023-03-14T02:56:10;11.20;;;8.00;;
23642;SDS011;11998;55.788;37.572;2023-03-14T02:57:10;8.57;;;6.97;;
23642;SDS011;11998;55.788;37.572;2023-03-14T02:58:13;11.65;;;7.53;;
23642;SDS011;11998;55.788;37.572;2023-03-14T02:59:14;10.20;;;7.37;;
23642;SDS011;11998;55.788;37.572;2023-03-14T03:00:14;12.27;;;6.97;;
23642;SDS011;11998;55.788;37.572;2023-03-14T03:01:15;10.23;;;7.50;;
23642;SDS011;11998;55.788;37.572;2023-03-14T03:02:15;8.70;;;6.77;;
23642;SDS011;11998;55.788;37.572;2023-03-14T03:03:16;11.50;;;7.37;;
23642;SDS011;11998;55.788;37.572;2023-03-14T03:04:16;8.63;;;6.90;;
23642;SDS011;11998;55.788;37.572;2023-03-14T03:05:17;10.83;;;7.53;;
23642;SDS011;11998;55.788;37.572;2023-03-14T03:06:17;10.57;;;6.77;;
23642;SDS011;11998;55.788;37.572;2023-03-14T03:07:17;25.83;;;8.33;;
23642;SDS011;11998;55.788;37.572;2023-03-14T03:08:20;10.70;;;8.45;;
23642;SDS011;11998;55.788;37.572;2023-03-14T03:09:20;11.60;;;9.45;;
23642;SDS011;11998;55.788;37.572;2023-03-14T03:10:21;18.60;;;10.27;;
23642;SDS011;11998;55.788;37.572;2023-03-14T03:11:21;13.23;;;10.33;;
23642;SDS011;11998;55.788;37.572;2023-03-14T03:12:22;12.03;;;9.60;;
23642;SDS011;11998;55.788;37.572;2023-03-14T03:13:22;15.13;;;9.17;;
23642;SDS011;11998;55.788;37.572;2023-03-14T03:14:24;10.38;;;9.05;;
23642;SDS011;11998;55.788;37.572;2023-03-14T03:15:24;13.80;;;9.60;;
23642;SDS011;11998;55.788;37.572;2023-03-14T03:16:25;13.70;;;10.37;;
23642;SDS011;11998;55.788;37.572;2023-03-14T03:17:25;13.67;;;8.83;;
23642;SDS011;11998;55.788;37.572;2023-03-14T03:18:26;10.37;;;6.63;;
23642;SDS011;11998;55.788;37.572;2023-03-14T03:19:26;10.60;;;7.00;;
23642;SDS011;11998;55.788;37.572;2023-03-14T03:20:26;10.97;;;7.57;;
23642;SDS011;11998;55.788;37.572;2023-03-14T03:21:27;10.43;;;6.97;;
23642;SDS011;11998;55.788;37.572;2023-03-14T03:22:27;10.27;;;7.17;;
23642;SDS011;11998;55.788;37.572;2023-03-14T03:23:28;11.47;;;7.80;;
23642;SDS011;11998;55.788;37.572;2023-03-14T03:24:28;14.87;;;9.30;;
23642;SDS011;11998;55.788;37.572;2023-03-14T03:25:28;16.70;;;9.57;;
23642;SDS011;11998;55.788;37.572;2023-03-14T03:26:29;11.57;;;8.07;;
23642;SDS011;11998;55.788;37.572;2023-03-14T03:27:30;12.57;;;8.57;;
23642;SDS011;11998;55.788;37.572;2023-03-14T03:28:31;13.88;;;9.07;;
23642;SDS011;11998;55.788;37.572;2023-03-14T03:29:31;11.70;;;9.63;;
23642;SDS011;11998;55.788;37.572;2023-03-14T03:30:32;10.77;;;8.30;;
23642;SDS011;11998;55.788;37.572;2023-03-14T03:31:32;11.77;;;8.63;;
23642;SDS011;11998;55.788;37.572;2023-03-14T03:32:32;11.27;;;8.67;;
23642;SDS011;11998;55.788;37.572;2023-03-14T03:33:33;13.13;;;8.53;;
23642;SDS011;11998;55.788;37.572;2023-03-14T03:34:33;12.13;;;9.07;;
23642;SDS011;11998;55.788;37.572;2023-03-14T03:35:35;12.70;;;9.27;;
23642;SDS011;11998;55.788;37.572;2023-03-14T03:36:35;12.77;;;9.67;;
23642;SDS011;11998;55.788;37.572;2023-03-14T03:37:35;11.37;;;8.57;;
23642;SDS011;11998;55.788;37.572;2023-03-14T03:38:36;12.83;;;9.67;;
23642;SDS011;11998;55.788;37.572;2023-03-14T03:39:36;15.13;;;8.67;;
23642;SDS011;11998;55.788;37.572;2023-03-14T03:40:37;12.20;;;9.20;;
23642;SDS011;11998;55.788;37.572;2023-03-14T03:41:37;13.07;;;9.43;;
23642;SDS011;11998;55.788;37.572;2023-03-14T03:42:38;11.53;;;8.60;;
23642;SDS011;11998;55.788;37.572;2023-03-14T03:43:38;11.30;;;8.83;;
23642;SDS011;11998;55.788;37.572;2023-03-14T03:44:38;10.50;;;8.50;;
23642;SDS011;11998;55.788;37.572;2023-03-14T03:45:39;12.50;;;9.33;;
23642;SDS011;11998;55.788;37.572;2023-03-14T03:46:40;13.27;;;9.95;;
23642;SDS011;11998;55.788;37.572;2023-03-14T03:47:40;10.23;;;8.63;;
23642;SDS011;11998;55.788;37.572;2023-03-14T03:48:40;12.47;;;10.30;;
23642;SDS011;11998;55.788;37.572;2023-03-14T03:49:41;12.57;;;9.73;;
23642;SDS011;11998;55.788;37.572;2023-03-14T03:50:45;11.27;;;9.07;;
23642;SDS011;11998;55.788;37.572;2023-03-14T03:51:45;14.55;;;9.32;;
23642;SDS011;11998;55.788;37.572;2023-03-14T03:52:46;11.57;;;8.90;;
23642;SDS011;11998;55.788;37.572;2023-03-14T03:53:47;12.83;;;9.10;;
23642;SDS011;11998;55.788;37.572;2023-03-14T03:54:47;11.90;;;8.70;;
23642;SDS011;11998;55.788;37.572;2023-03-14T03:55:47;11.13;;;9.03;;
23642;SDS011;11998;55.788;37.572;2023-03-14T03:56:48;10.43;;;7.30;;
23642;SDS011;11998;55.788;37.572;2023-03-14T03:57:48;11.63;;;8.20;;
23642;SDS011;11998;55.788;37.572;2023-03-14T03:58:49;9.10;;;7.60;;
23642;SDS011;11998;55.788;37.572;2023-03-14T03:59:49;12.73;;;9.93;;
23642;SDS011;11998;55.788;37.572;2023-03-14T04:00:49;12.03;;;9.60;;
23642;SDS011;11998;55.788;37.572;2023-03-14T04:01:50;14.17;;;10.30;;
23642;SDS011;11998;55.788;37.572;2023-03-14T04:02:50;11.97;;;9.57;;
23642;SDS011;11998;55.788;37.572;2023-03-14T04:03:51;11.93;;;9.33;;
23642;SDS011;11998;55.788;37.572;2023-03-14T04:04:51;10.33;;;8.53;;
23642;SDS011;11998;55.788;37.572;2023-03-14T04:05:58;11.97;;;8.93;;
23642;SDS011;11998;55.788;37.572;2023-03-14T04:07:02;9.10;;;7.03;;
23642;SDS011;11998;55.788;37.572;2023-03-14T04:08:03;10.30;;;8.77;;
23642;SDS011;11998;55.788;37.572;2023-03-14T04:09:07;13.82;;;9.07;;
23642;SDS011;11998;55.788;37.572;2023-03-14T04:10:07;9.98;;;8.25;;
23642;SDS011;11998;55.788;37.572;2023-03-14T04:11:08;10.67;;;8.47;;
23642;SDS011;11998;55.788;37.572;2023-03-14T04:12:08;12.17;;;9.13;;
23642;SDS011;11998;55.788;37.572;2023-03-14T04:13:11;11.38;;;9.70;;
23642;SDS011;11998;55.788;37.572;2023-03-14T04:14:11;11.00;;;9.03;;
23642;SDS011;11998;55.788;37.572;2023-03-14T04:15:11;14.93;;;8.93;;
23642;SDS011;11998;55.788;37.572;2023-03-14T04:16:20;10.83;;;8.93;;
23642;SDS011;11998;55.788;37.572;2023-03-14T04:17:21;13.70;;;9.18;;
23642;SDS011;11998;55.788;37.572;2023-03-14T04:18:21;11.17;;;9.00;;
23642;SDS011;11998;55.788;37.572;2023-03-14T04:19:22;12.93;;;9.23;;
23642;SDS011;11998;55.788;37.572;2023-03-14T04:20:22;13.03;;;10.17;;
23642;SDS011;11998;55.788;37.572;2023-03-14T04:21:23;12.27;;;9.17;;
23642;SDS011;11998;55.788;37.572;2023-03-14T04:22:24;15.07;;;10.33;;
23642;SDS011;11998;55.788;37.572;2023-03-14T04:23:24;21.53;;;9.40;;
23642;SDS011;11998;55.788;37.572;2023-03-14T04:24:24;12.43;;;8.93;;
23642;SDS011;11998;55.788;37.572;2023-03-14T04:25:25;12.90;;;9.57;;
23642;SDS011;11998;55.788;37.572;2023-03-14T04:26:25;11.53;;;9.30;;
23642;SDS011;11998;55.788;37.572;2023-03-14T04:27:25;12.50;;;9.57;;
23642;SDS011;11998;55.788;37.572;2023-03-14T04:28:26;10.67;;;9.50;;
23642;SDS011;11998;55.788;37.572;2023-03-14T04:29:26;13.13;;;9.97;;
23642;SDS011;11998;55.788;37.572;2023-03-14T04:30:27;10.60;;;8.90;;
23642;SDS011;11998;55.788;37.572;2023-03-14T04:31:27;10.23;;;8.40;;
23642;SDS011;11998;55.788;37.572;2023-03-14T04:32:27;13.67;;;9.80;;
23642;SDS011;11998;55.788;37.572;2023-03-14T04:33:28;11.73;;;9.50;;
23642;SDS011;11998;55.788;37.572;2023-03-14T04:34:28;10.33;;;9.00;;
23642;SDS011;11998;55.788;37.572;2023-03-14T04:35:30;12.57;;;10.00;;
23642;SDS011;11998;55.788;37.572;2023-03-14T04:36:30;12.82;;;9.98;;
23642;SDS011;11998;55.788;37.572;2023-03-14T04:37:31;14.13;;;9.13;;
23642;SDS011;11998;55.788;37.572;2023-03-14T04:38:31;11.83;;;9.37;;
23642;SDS011;11998;55.788;37.572;2023-03-14T04:39:31;11.40;;;9.03;;
23642;SDS011;11998;55.788;37.572;2023-03-14T04:40:32;15.17;;;10.17;;
23642;SDS011;11998;55.788;37.572;2023-03-14T04:41:32;15.43;;;9.97;;
23642;SDS011;11998;55.788;37.572;2023-03-14T04:42:33;15.63;;;9.63;;
23642;SDS011;11998;55.788;37.572;2023-03-14T04:43:35;13.50;;;9.95;;
23642;SDS011;11998;55.788;37.572;2023-03-14T04:44:36;12.87;;;9.73;;
23642;SDS011;11998;55.788;37.572;2023-03-14T04:45:36;13.67;;;9.80;;
23642;SDS011;11998;55.788;37.572;2023-03-14T04:46:37;15.50;;;10.77;;
23642;SDS011;11998;55.788;37.572;2023-03-14T04:47:37;15.47;;;10.20;;
23642;SDS011;11998;55.788;37.572;2023-03-14T04:48:38;12.67;;;9.27;;
23642;SDS011;11998;55.788;37.572;2023-03-14T04:49:38;12.03;;;9.50;;
23642;SDS011;11998;55.788;37.572;2023-03-14T04:50:38;11.93;;;9.97;;
23642;SDS011;11998;55.788;37.572;2023-03-14T04:51:39;12.63;;;9.30;;
23642;SDS011;11998;55.788;37.572;2023-03-14T04:52:39;13.37;;;9.67;;
23642;SDS011;11998;55.788;37.572;2023-03-14T04:53:44;13.70;;;9.10;;
23642;SDS011;11998;55.788;37.572;2023-03-14T04:54:44;15.32;;;9.80;;
23642;SDS011;11998;55.788;37.572;2023-03-14T04:55:52;14.33;;;10.03;;
23642;SDS011;11998;55.788;37.572;2023-03-14T04:56:52;13.85;;;9.70;;
23642;SDS011;11998;55.788;37.572;2023-03-14T04:57:52;21.03;;;10.53;;
23642;SDS011;11998;55.788;37.572;2023-03-14T04:58:53;12.83;;;9.83;;
23642;SDS011;11998;55.788;37.572;2023-03-14T04:59:53;15.30;;;10.87;;
23642;SDS011;11998;55.788;37.572;2023-03-14T05:00:54;12.30;;;10.73;;
23642;SDS011;11998;55.788;37.572;2023-03-14T05:01:54;12.50;;;9.70;;
23642;SDS011;11998;55.788;37.572;2023-03-14T05:02:55;14.30;;;10.83;;
23642;SDS011;11998;55.788;37.572;2023-03-14T05:03:55;14.57;;;9.83;;
23642;SDS011;11998;55.788;37.572;2023-03-14T05:04:55;14.33;;;10.40;;
23642;SDS011;11998;55.788;37.572;2023-03-14T05:05:56;14.23;;;10.33;;
23642;SDS011;11998;55.788;37.572;2023-03-14T05:06:57;16.25;;;10.82;;
23642;SDS011;11998;55.788;37.572;2023-03-14T05:08:00;13.32;;;9.82;;
23642;SDS011;11998;55.788;37.572;2023-03-14T05:09:01;11.90;;;9.57;;
23642;SDS011;11998;55.788;37.572;2023-03-14T05:10:02;13.03;;;10.10;;
23642;SDS011;11998;55.788;37.572;2023-03-14T05:11:02;15.30;;;10.90;;
23642;SDS011;11998;55.788;37.572;2023-03-14T05:12:03;13.30;;;10.10;;
23642;SDS011;11998;55.788;37.572;2023-03-14T05:13:03;13.37;;;10.47;;
23642;SDS011;11998;55.788;37.572;2023-03-14T05:14:04;11.30;;;9.00;;
23642;SDS011;11998;55.788;37.572;2023-03-14T05:15:07;12.70;;;10.27;;
23642;SDS011;11998;55.788;37.572;2023-03-14T05:16:08;12.50;;;9.68;;
23642;SDS011;11998;55.788;37.572;2023-03-14T05:17:08;13.73;;;9.23;;
23642;SDS011;11998;55.788;37.572;2023-03-14T05:18:09;14.77;;;9.97;;
23642;SDS011;11998;55.788;37.572;2023-03-14T05:19:10;11.00;;;9.20;;
23642;SDS011;11998;55.788;37.572;2023-03-14T05:20:10;11.37;;;8.70;;
23642;SDS011;11998;55.788;37.572;2023-03-14T05:21:12;14.48;;;8.80;;
23642;SDS011;11998;55.788;37.572;2023-03-14T05:22:13;13.80;;;8.67;;
23642;SDS011;11998;55.788;37.572;2023-03-14T05:23:16;10.20;;;8.45;;
23642;SDS011;11998;55.788;37.572;2023-03-14T05:24:16;14.93;;;9.23;;
23642;SDS011;11998;55.788;37.572;2023-03-14T05:25:17;12.57;;;9.03;;
23642;SDS011;11998;55.788;37.572;2023-03-14T05:26:17;11.20;;;9.50;;
23642;SDS011;11998;55.788;37.572;2023-03-14T05:27:20;10.93;;;9.27;;
23642;SDS011;11998;55.788;37.572;2023-03-14T05:28:21;13.27;;;8.27;;
23642;SDS011;11998;55.788;37.572;2023-03-14T05:29:21;13.83;;;8.53;;
23642;SDS011;11998;55.788;37.572;2023-03-14T05:30:22;11.10;;;7.93;;
23642;SDS011;11998;55.788;37.572;2023-03-14T05:31:22;12.50;;;7.80;;
23642;SDS011;11998;55.788;37.572;2023-03-14T05:32:22;11.33;;;6.63;;
23642;SDS011;11998;55.788;37.572;2023-03-14T05:33:23;9.13;;;6.60;;
23642;SDS011;11998;55.788;37.572;2023-03-14T05:34:23;13.67;;;7.73;;
23642;SDS011;11998;55.788;37.572;2023-03-14T05:35:24;12.03;;;7.20;;
23642;SDS011;11998;55.788;37.572;2023-03-14T05:36:24;9.63;;;6.20;;
23642;SDS011;11998;55.788;37.572;2023-03-14T05:37:25;8.60;;;6.33;;
23642;SDS011;11998;55.788;37.572;2023-03-14T05:38:26;10.30;;;6.57;;
23642;SDS011;11998;55.788;37.572;2023-03-14T05:39:26;7.50;;;5.97;;
23642;SDS011;11998;55.788;37.572;2023-03-14T05:40:26;8.90;;;6.43;;
23642;SDS011;11998;55.788;37.572;2023-03-14T05:41:27;10.13;;;6.40;;
23642;SDS011;11998;55.788;37.572;2023-03-14T05:42:27;8.47;;;6.47;;
23642;SDS011;11998;55.788;37.572;2023-03-14T05:43:27;10.23;;;5.93;;
23642;SDS011;11998;55.788;37.572;2023-03-14T05:44:28;7.77;;;6.37;;
23642;SDS011;11998;55.788;37.572;2023-03-14T05:45:29;7.23;;;5.93;;
23642;SDS011;11998;55.788;37.572;2023-03-14T05:46:29;8.37;;;5.30;;
23642;SDS011;11998;55.788;37.572;2023-03-14T05:47:30;10.15;;;6.03;;
23642;SDS011;11998;55.788;37.572;2023-03-14T05:48:31;11.17;;;5.77;;
23642;SDS011;11998;55.788;37.572;2023-03-14T05:49:31;12.93;;;5.70;;
23642;SDS011;11998;55.788;37.572;2023-03-14T05:50:31;8.40;;;5.77;;
23642;SDS011;11998;55.788;37.572;2023-03-14T05:51:34;12.88;;;5.78;;
23642;SDS011;11998;55.788;37.572;2023-03-14T05:52:35;6.40;;;5.47;;
23642;SDS011;11998;55.788;37.572;2023-03-14T05:53:35;6.40;;;5.30;;
23642;SDS011;11998;55.788;37.572;2023-03-14T05:54:36;9.63;;;5.17;;
23642;SDS011;11998;55.788;37.572;2023-03-14T05:55:36;6.67;;;5.00;;
23642;SDS011;11998;55.788;37.572;2023-03-14T05:56:37;10.30;;;5.10;;
23642;SDS011;11998;55.788;37.572;2023-03-14T05:57:40;10.40;;;5.82;;
23642;SDS011;11998;55.788;37.572;2023-03-14T05:58:45;7.45;;;5.60;;
23642;SDS011;11998;55.788;37.572;2023-03-14T05:59:46;12.70;;;5.70;;
23642;SDS011;11998;55.788;37.572;2023-03-14T06:00:46;8.23;;;5.70;;
23642;SDS011;11998;55.788;37.572;2023-03-14T06:01:47;13.83;;;5.40;;
23642;SDS011;11998;55.788;37.572;2023-03-14T06:02:47;8.97;;;5.40;;
23642;SDS011;11998;55.788;37.572;2023-03-14T06:03:48;7.77;;;5.17;;
23642;SDS011;11998;55.788;37.572;2023-03-14T06:04:48;13.30;;;6.10;;
23642;SDS011;11998;55.788;37.572;2023-03-14T06:05:49;11.40;;;5.70;;
23642;SDS011;11998;55.788;37.572;2023-03-14T06:06:49;8.33;;;4.60;;
23642;SDS011;11998;55.788;37.572;2023-03-14T06:07:50;8.20;;;5.13;;